sensor_id;sensor_type;location;lat;lon;timestamp;pressure;altitude;pressure_sealevel;temperature;humidity
9307;BME280;4691;47.612;7.610;2022-11-27T00:01:29;101396.16;;;2.55;40.32
9307;BME280;4691;47.612;7.610;2022-11-27T00:03:55;101367.03;;;2.65;41.22
9307;BME280;4691;47.612;7.610;2022-11-27T00:06:23;101368.81;;;2.66;40.47
9307;BME280;4691;47.612;7.610;2022-11-27T00:08:49;101370.50;;;2.76;39.72
9307;BME280;4691;47.612;7.610;2022-11-27T00:11:17;101364.28;;;2.86;39.50
9307;BME280;4691;47.612;7.610;2022-11-27T00:13:43;101357.25;;;2.83;39.74
9307;BME280;4691;47.612;7.610;2022-11-27T00:16:10;101347.63;;;2.72;39.85
9307;BME280;4691;47.612;7.610;2022-11-27T00:18:36;101356.41;;;2.74;40.15
9307;BME280;4691;47.612;7.610;2022-11-27T00:21:07;101359.88;;;2.88;40.00
9307;BME280;4691;47.612;7.610;2022-11-27T00:23:34;101421.59;;;2.75;40.05
9307;BME280;4691;47.612;7.610;2022-11-27T00:25:59;101411.91;;;2.72;40.22
9307;BME280;4691;47.612;7.610;2022-11-27T00:28:25;101421.59;;;2.78;40.68
9307;BME280;4691;47.612;7.610;2022-11-27T00:30:50;101435.69;;;2.77;40.92
9307;BME280;4691;47.612;7.610;2022-11-27T00:33:16;101438.28;;;2.84;40.88
9307;BME280;4691;47.612;7.610;2022-11-27T00:35:41;101427.63;;;3.03;40.56
9307;BME280;4691;47.612;7.610;2022-11-27T00:38:07;101436.59;;;2.76;41.55
9307;BME280;4691;47.612;7.610;2022-11-27T00:40:32;101434.78;;;2.82;41.44
9307;BME280;4691;47.612;7.610;2022-11-27T00:42:58;101421.63;;;2.72;41.58
9307;BME280;4691;47.612;7.610;2022-11-27T00:45:23;101402.25;;;2.67;43.28
9307;BME280;4691;47.612;7.610;2022-11-27T00:47:48;101437.47;;;2.72;41.95
9307;BME280;4691;47.612;7.610;2022-11-27T00:50:14;101429.63;;;2.59;41.84
9307;BME280;4691;47.612;7.610;2022-11-27T00:52:40;101449.91;;;2.45;42.20
9307;BME280;4691;47.612;7.610;2022-11-27T00:55:05;101444.63;;;2.36;42.61
9307;BME280;4691;47.612;7.610;2022-11-27T00:57:31;101463.13;;;2.34;42.70
9307;BME280;4691;47.612;7.610;2022-11-27T00:59:56;101461.41;;;2.29;42.71
9307;BME280;4691;47.612;7.610;2022-11-27T01:02:22;101464.00;;;2.26;42.74
9307;BME280;4691;47.612;7.610;2022-11-27T01:04:48;101446.44;;;2.20;42.69
9307;BME280;4691;47.612;7.610;2022-11-27T01:07:13;101413.00;;;2.05;44.25
9307;BME280;4691;47.612;7.610;2022-11-27T01:09:39;101415.66;;;2.07;43.14
9307;BME280;4691;47.612;7.610;2022-11-27T01:12:04;101387.50;;;2.07;42.86
9307;BME280;4691;47.612;7.610;2022-11-27T01:14:30;101352.31;;;2.07;43.93
9307;BME280;4691;47.612;7.610;2022-11-27T01:16:55;101341.75;;;2.04;43.57
9307;BME280;4691;47.612;7.610;2022-11-27T01:19:20;101332.03;;;2.10;43.05
9307;BME280;4691;47.612;7.610;2022-11-27T01:21:45;101309.19;;;2.00;43.21
9307;BME280;4691;47.612;7.610;2022-11-27T01:24:12;101297.75;;;2.00;42.97
9307;BME280;4691;47.612;7.610;2022-11-27T01:26:38;101286.28;;;2.05;42.43
9307;BME280;4691;47.612;7.610;2022-11-27T01:29:04;101277.47;;;2.15;41.81
9307;BME280;4691;47.612;7.610;2022-11-27T01:31:31;101277.44;;;2.25;41.63
9307;BME280;4691;47.612;7.610;2022-11-27T01:34:05;101286.25;;;2.21;41.80
9307;BME280;4691;47.612;7.610;2022-11-27T01:36:32;101303.84;;;2.22;42.47
9307;BME280;4691;47.612;7.610;2022-11-27T01:38:59;101321.44;;;2.23;42.41
9307;BME280;4691;47.612;7.610;2022-11-27T01:41:30;101376.94;;;2.07;43.13
9307;BME280;4691;47.612;7.610;2022-11-27T01:43:58;101390.13;;;2.07;43.38
9307;BME280;4691;47.612;7.610;2022-11-27T01:49:12;101395.41;;;2.16;43.07
9307;BME280;4691;47.612;7.610;2022-11-27T01:51:50;101379.56;;;2.07;43.30
9307;BME280;4691;47.612;7.610;2022-11-27T01:54:18;101391.91;;;2.02;43.58
9307;BME280;4691;47.612;7.610;2022-11-27T01:56:47;101375.19;;;2.03;43.60
9307;BME280;4691;47.612;7.610;2022-11-27T01:59:15;101367.28;;;2.03;43.63
9307;BME280;4691;47.612;7.610;2022-11-27T02:01:42;101346.16;;;2.06;43.35
9307;BME280;4691;47.612;7.610;2022-11-27T02:04:07;101311.84;;;1.97;43.55
9307;BME280;4691;47.612;7.610;2022-11-27T02:06:33;101301.28;;;2.02;43.28
9307;BME280;4691;47.612;7.610;2022-11-27T02:08:59;101292.47;;;2.06;43.16
9307;BME280;4691;47.612;7.610;2022-11-27T02:11:31;101278.41;;;1.99;43.34
9307;BME280;4691;47.612;7.610;2022-11-27T02:14:33;101256.41;;;1.97;43.52
9307;BME280;4691;47.612;7.610;2022-11-27T02:20:12;101222.97;;;2.02;43.66
9307;BME280;4691;47.612;7.610;2022-11-27T02:30:45;101167.69;;;2.99;40.43
9307;BME280;4691;47.612;7.610;2022-11-27T02:33:14;101136.69;;;3.17;39.87
9307;BME280;4691;47.612;7.610;2022-11-27T02:35:55;101103.97;;;3.27;39.46
9307;BME280;4691;47.612;7.610;2022-11-27T02:38:34;101058.00;;;3.37;39.17
9307;BME280;4691;47.612;7.610;2022-11-27T02:41:18;101039.38;;;3.43;38.97
9307;BME280;4691;47.612;7.610;2022-11-27T02:43:47;101019.88;;;3.52;38.76
9307;BME280;4691;47.612;7.610;2022-11-27T02:46:15;101005.75;;;3.53;38.63
9307;BME280;4691;47.612;7.610;2022-11-27T02:48:44;100982.84;;;3.52;38.55
9307;BME280;4691;47.612;7.610;2022-11-27T02:51:12;100963.31;;;3.59;38.25
9307;BME280;4691;47.612;7.610;2022-11-27T02:53:47;100927.22;;;3.55;38.29
9307;BME280;4691;47.612;7.610;2022-11-27T02:56:18;100899.00;;;3.56;38.24
9307;BME280;4691;47.612;7.610;2022-11-27T02:58:45;100876.91;;;3.58;38.19
9307;BME280;4691;47.612;7.610;2022-11-27T03:01:13;100866.19;;;3.66;38.01
9307;BME280;4691;47.612;7.610;2022-11-27T03:03:44;100834.38;;;3.69;37.88
9307;BME280;4691;47.612;7.610;2022-11-27T03:06:14;100819.22;;;3.77;37.76
9307;BME280;4691;47.612;7.610;2022-11-27T03:08:41;100788.09;;;3.91;37.59
9307;BME280;4691;47.612;7.610;2022-11-27T03:11:10;100727.22;;;3.91;37.62
9307;BME280;4691;47.612;7.610;2022-11-27T03:13:43;100709.69;;;3.84;37.65
9307;BME280;4691;47.612;7.610;2022-11-27T03:19:41;100771.66;;;3.74;33.90
9307;BME280;4691;47.612;7.610;2022-11-27T03:22:08;100747.13;;;3.66;34.63
9307;BME280;4691;47.612;7.610;2022-11-27T03:24:34;100740.19;;;3.59;35.02
9307;BME280;4691;47.612;7.610;2022-11-27T03:27:01;100738.25;;;3.68;35.02
9307;BME280;4691;47.612;7.610;2022-11-27T03:29:51;100733.69;;;3.77;35.04
9307;BME280;4691;47.612;7.610;2022-11-27T03:32:17;100699.31;;;3.75;35.03
9307;BME280;4691;47.612;7.610;2022-11-27T03:34:43;100702.69;;;3.83;34.91
9307;BME280;4691;47.612;7.610;2022-11-27T03:37:09;100625.63;;;3.97;34.62
9307;BME280;4691;47.612;7.610;2022-11-27T03:39:35;100610.59;;;3.98;34.52
9307;BME280;4691;47.612;7.610;2022-11-27T03:42:17;100591.81;;;4.08;34.27
9307;BME280;4691;47.612;7.610;2022-11-27T03:47:40;100544.81;;;4.18;33.91
9307;BME280;4691;47.612;7.610;2022-11-27T03:50:30;100533.31;;;4.19;33.75
9307;BME280;4691;47.612;7.610;2022-11-27T03:53:06;100481.06;;;4.26;33.53
9307;BME280;4691;47.612;7.610;2022-11-27T03:55:52;100463.25;;;4.32;33.26
9307;BME280;4691;47.612;7.610;2022-11-27T03:58:32;100441.00;;;4.38;33.08
9307;BME280;4691;47.612;7.610;2022-11-27T04:01:00;100352.56;;;4.44;32.96
9307;BME280;4691;47.612;7.610;2022-11-27T04:03:28;100370.00;;;4.52;32.89
9307;BME280;4691;47.612;7.610;2022-11-27T04:05:54;100380.66;;;4.49;32.99
9307;BME280;4691;47.612;7.610;2022-11-27T04:08:19;100387.72;;;4.49;33.16
9307;BME280;4691;47.612;7.610;2022-11-27T04:10:45;100411.53;;;4.50;33.42
9307;BME280;4691;47.612;7.610;2022-11-27T04:13:10;100438.06;;;4.49;33.63
9307;BME280;4691;47.612;7.610;2022-11-27T04:15:36;100444.22;;;4.49;33.80
9307;BME280;4691;47.612;7.610;2022-11-27T04:18:01;100455.72;;;4.50;33.95
9307;BME280;4691;47.612;7.610;2022-11-27T04:20:26;100462.78;;;4.49;34.06
9307;BME280;4691;47.612;7.610;2022-11-27T04:22:53;100476.09;;;4.46;34.25
9307;BME280;4691;47.612;7.610;2022-11-27T04:25:19;100491.06;;;4.49;34.27
9307;BME280;4691;47.612;7.610;2022-11-27T04:27:44;100498.03;;;4.53;34.45
9307;BME280;4691;47.612;7.610;2022-11-27T04:30:10;100510.66;;;4.42;34.78
9307;BME280;4691;47.612;7.610;2022-11-27T04:32:35;100524.59;;;4.50;34.87
9307;BME280;4691;47.612;7.610;2022-11-27T04:35:00;100533.63;;;4.43;35.12
9307;BME280;4691;47.612;7.610;2022-11-27T04:37:26;100551.25;;;4.44;35.28
9307;BME280;4691;47.612;7.610;2022-11-27T04:39:51;100558.22;;;4.48;35.45
9307;BME280;4691;47.612;7.610;2022-11-27T04:42:16;100568.91;;;4.45;35.67
9307;BME280;4691;47.612;7.610;2022-11-27T04:44:41;100576.09;;;4.40;35.98
9307;BME280;4691;47.612;7.610;2022-11-27T04:47:07;100577.78;;;4.42;36.23
9307;BME280;4691;47.612;7.610;2022-11-27T04:49:32;100586.59;;;4.43;36.47
9307;BME280;4691;47.612;7.610;2022-11-27T04:51:58;100594.66;;;4.38;36.80
9307;BME280;4691;47.612;7.610;2022-11-27T04:54:23;100611.28;;;4.45;36.90
9307;BME280;4691;47.612;7.610;2022-11-27T04:56:48;100613.03;;;4.44;35.35
9307;BME280;4691;47.612;7.610;2022-11-27T04:59:13;100622.81;;;4.42;35.66
9307;BME280;4691;47.612;7.610;2022-11-27T05:01:39;100627.22;;;4.42;35.95
9307;BME280;4691;47.612;7.610;2022-11-27T05:04:04;100633.41;;;4.42;36.28
9307;BME280;4691;47.612;7.610;2022-11-27T05:06:29;100644.97;;;4.38;36.88
9307;BME280;4691;47.612;7.610;2022-11-27T05:08:55;100644.06;;;4.39;37.94
9307;BME280;4691;47.612;7.610;2022-11-27T05:11:24;100643.19;;;4.39;38.47
9307;BME280;4691;47.612;7.610;2022-11-27T05:13:50;100640.66;;;4.34;38.96
9307;BME280;4691;47.612;7.610;2022-11-27T05:16:35;100645.94;;;4.34;39.35
9307;BME280;4691;47.612;7.610;2022-11-27T05:19:00;100634.47;;;4.33;39.91
9307;BME280;4691;47.612;7.610;2022-11-27T05:21:26;100630.13;;;4.32;40.55
9307;BME280;4691;47.612;7.610;2022-11-27T05:23:51;100623.03;;;4.33;41.09
9307;BME280;4691;47.612;7.610;2022-11-27T05:26:16;100609.88;;;4.28;41.67
9307;BME280;4691;47.612;7.610;2022-11-27T05:28:41;100607.16;;;4.31;42.32
9307;BME280;4691;47.612;7.610;2022-11-27T05:31:07;100597.66;;;4.24;43.01
9307;BME280;4691;47.612;7.610;2022-11-27T05:33:32;100586.13;;;4.25;43.32
9307;BME280;4691;47.612;7.610;2022-11-27T05:35:57;100577.25;;;4.28;43.69
9307;BME280;4691;47.612;7.610;2022-11-27T05:38:23;100572.88;;;4.25;44.35
9307;BME280;4691;47.612;7.610;2022-11-27T05:40:48;100559.66;;;4.25;44.83
9307;BME280;4691;47.612;7.610;2022-11-27T05:43:13;100542.91;;;4.23;45.43
9307;BME280;4691;47.612;7.610;2022-11-27T05:45:38;100537.44;;;4.31;45.82
9307;BME280;4691;47.612;7.610;2022-11-27T05:48:04;100539.22;;;4.30;46.59
9307;BME280;4691;47.612;7.610;2022-11-27T05:50:29;100537.41;;;4.32;47.73
9307;BME280;4691;47.612;7.610;2022-11-27T05:52:55;100535.59;;;4.34;49.17
9307;BME280;4691;47.612;7.610;2022-11-27T05:55:20;100528.53;;;4.33;50.46
9307;BME280;4691;47.612;7.610;2022-11-27T05:57:45;100526.72;;;4.35;51.79
9307;BME280;4691;47.612;7.610;2022-11-27T06:00:11;100509.91;;;4.36;53.56
9307;BME280;4691;47.612;7.610;2022-11-27T06:02:36;100508.28;;;4.31;55.91
9307;BME280;4691;47.612;7.610;2022-11-27T06:05:02;100495.03;;;4.32;57.37
9307;BME280;4691;47.612;7.610;2022-11-27T06:07:27;100488.06;;;4.28;59.38
9307;BME280;4691;47.612;7.610;2022-11-27T06:09:52;100471.38;;;4.25;61.02
9307;BME280;4691;47.612;7.610;2022-11-27T06:12:17;100465.13;;;4.27;62.47
9307;BME280;4691;47.612;7.610;2022-11-27T06:14:43;100460.88;;;4.22;64.17
9307;BME280;4691;47.612;7.610;2022-11-27T06:17:08;100448.53;;;4.21;65.30
9307;BME280;4691;47.612;7.610;2022-11-27T06:19:33;100436.97;;;4.23;66.33
9307;BME280;4691;47.612;7.610;2022-11-27T06:21:59;100414.16;;;4.19;67.91
9307;BME280;4691;47.612;7.610;2022-11-27T06:24:24;100414.31;;;4.13;69.92
9307;BME280;4691;47.612;7.610;2022-11-27T06:26:49;100408.97;;;4.14;70.62
9307;BME280;4691;47.612;7.610;2022-11-27T06:29:14;100408.03;;;4.17;72.57
9307;BME280;4691;47.612;7.610;2022-11-27T06:31:40;100406.25;;;4.18;74.98
9307;BME280;4691;47.612;7.610;2022-11-27T06:34:05;100408.88;;;4.19;77.02
9307;BME280;4691;47.612;7.610;2022-11-27T06:36:36;100420.22;;;4.23;79.56
9307;BME280;4691;47.612;7.610;2022-11-27T06:39:04;100436.09;;;4.24;82.47
9307;BME280;4691;47.612;7.610;2022-11-27T06:41:30;100446.72;;;4.23;85.37
9307;BME280;4691;47.612;7.610;2022-11-27T06:43:57;100451.94;;;4.26;88.10
9307;BME280;4691;47.612;7.610;2022-11-27T06:46:24;100461.47;;;4.31;91.73
9307;BME280;4691;47.612;7.610;2022-11-27T06:48:50;100456.13;;;4.34;94.30
9307;BME280;4691;47.612;7.610;2022-11-27T06:51:19;100458.63;;;4.39;96.67
9307;BME280;4691;47.612;7.610;2022-11-27T06:53:44;100457.78;;;4.39;100.00
9307;BME280;4691;47.612;7.610;2022-11-27T06:56:12;100464.81;;;4.40;100.00
9307;BME280;4691;47.612;7.610;2022-11-27T06:58:38;100463.06;;;4.39;100.00
9307;BME280;4691;47.612;7.610;2022-11-27T07:01:06;100447.97;;;4.42;100.00
9307;BME280;4691;47.612;7.610;2022-11-27T07:03:32;100442.63;;;4.44;100.00
9307;BME280;4691;47.612;7.610;2022-11-27T07:06:01;100439.84;;;4.48;100.00
9307;BME280;4691;47.612;7.610;2022-11-27T07:08:27;100441.47;;;4.54;100.00
9307;BME280;4691;47.612;7.610;2022-11-27T07:10:52;100444.09;;;4.55;100.00
9307;BME280;4691;47.612;7.610;2022-11-27T07:13:18;100447.50;;;4.59;100.00
9307;BME280;4691;47.612;7.610;2022-11-27T07:15:43;100445.66;;;4.63;100.00
9307;BME280;4691;47.612;7.610;2022-11-27T07:18:09;100464.06;;;4.67;100.00
9307;BME280;4691;47.612;7.610;2022-11-27T07:20:34;100457.97;;;4.64;100.00
9307;BME280;4691;47.612;7.610;2022-11-27T07:23:00;100472.91;;;4.68;100.00
9307;BME280;4691;47.612;7.610;2022-11-27T07:25:25;100487.69;;;4.75;100.00
9307;BME280;4691;47.612;7.610;2022-11-27T07:27:50;100484.25;;;4.73;100.00
9307;BME280;4691;47.612;7.610;2022-11-27T07:30:16;100508.78;;;4.79;100.00
9307;BME280;4691;47.612;7.610;2022-11-27T07:32:41;100513.25;;;4.77;100.00
9307;BME280;4691;47.612;7.610;2022-11-27T07:35:07;100506.25;;;4.75;100.00
9307;BME280;4691;47.612;7.610;2022-11-27T07:37:33;100501.03;;;4.72;100.00
9307;BME280;4691;47.612;7.610;2022-11-27T07:39:58;100504.66;;;4.69;100.00
9307;BME280;4691;47.612;7.610;2022-11-27T07:42:24;100510.03;;;4.66;100.00
9307;BME280;4691;47.612;7.610;2022-11-27T07:44:49;100515.34;;;4.66;100.00
9307;BME280;4691;47.612;7.610;2022-11-27T07:47:14;100510.81;;;4.70;100.00
9307;BME280;4691;47.612;7.610;2022-11-27T07:49:40;100515.09;;;4.75;100.00
9307;BME280;4691;47.612;7.610;2022-11-27T07:52:05;100493.81;;;4.78;100.00
9307;BME280;4691;47.612;7.610;2022-11-27T07:54:31;100500.81;;;4.81;100.00
9307;BME280;4691;47.612;7.610;2022-11-27T07:56:56;100510.47;;;4.82;100.00
9307;BME280;4691;47.612;7.610;2022-11-27T07:59:21;100512.25;;;4.83;100.00
9307;BME280;4691;47.612;7.610;2022-11-27T08:01:46;100514.75;;;4.88;100.00
9307;BME280;4691;47.612;7.610;2022-11-27T08:04:12;100520.03;;;4.88;100.00
9307;BME280;4691;47.612;7.610;2022-11-27T08:06:37;100526.16;;;4.91;100.00
9307;BME280;4691;47.612;7.610;2022-11-27T08:09:03;100530.41;;;4.97;100.00
9307;BME280;4691;47.612;7.610;2022-11-27T08:11:30;100535.53;;;5.03;100.00
9307;BME280;4691;47.612;7.610;2022-11-27T08:13:59;100545.97;;;5.09;100.00
9307;BME280;4691;47.612;7.610;2022-11-27T08:16:25;100547.56;;;5.16;100.00
9307;BME280;4691;47.612;7.610;2022-11-27T08:18:50;100536.22;;;5.11;100.00
9307;BME280;4691;47.612;7.610;2022-11-27T08:21:17;100526.56;;;5.09;100.00
9307;BME280;4691;47.612;7.610;2022-11-27T08:23:42;100528.50;;;5.02;100.00
9307;BME280;4691;47.612;7.610;2022-11-27T08:26:09;100525.00;;;5.00;100.00
9307;BME280;4691;47.612;7.610;2022-11-27T08:28:34;100523.09;;;5.05;100.00
9307;BME280;4691;47.612;7.610;2022-11-27T08:31:01;100531.56;;;5.18;100.00
9307;BME280;4691;47.612;7.610;2022-11-27T08:33:27;100533.97;;;5.27;100.00
9307;BME280;4691;47.612;7.610;2022-11-27T08:35:53;100533.91;;;5.29;100.00
9307;BME280;4691;47.612;7.610;2022-11-27T08:38:18;100537.28;;;5.35;100.00
9307;BME280;4691;47.612;7.610;2022-11-27T08:40:44;100515.72;;;5.46;100.00
9307;BME280;4691;47.612;7.610;2022-11-27T08:43:09;100510.41;;;5.46;100.00
9307;BME280;4691;47.612;7.610;2022-11-27T08:45:37;100493.09;;;5.62;100.00
9307;BME280;4691;47.612;7.610;2022-11-27T08:48:03;100482.47;;;5.62;100.00
9307;BME280;4691;47.612;7.610;2022-11-27T08:50:28;100478.38;;;5.80;100.00
9307;BME280;4691;47.612;7.610;2022-11-27T08:52:54;100454.09;;;5.93;100.00
9307;BME280;4691;47.612;7.610;2022-11-27T08:55:19;100446.50;;;6.08;100.00
9307;BME280;4691;47.612;7.610;2022-11-27T08:57:44;100444.97;;;6.28;100.00
9307;BME280;4691;47.612;7.610;2022-11-27T09:00:10;100448.56;;;6.52;100.00
9307;BME280;4691;47.612;7.610;2022-11-27T09:02:35;100429.13;;;6.75;100.00
9307;BME280;4691;47.612;7.610;2022-11-27T09:05:03;100406.56;;;7.09;100.00
9307;BME280;4691;47.612;7.610;2022-11-27T09:07:29;100369.97;;;7.15;100.00
9307;BME280;4691;47.612;7.610;2022-11-27T09:09:54;100329.63;;;7.26;100.00
9307;BME280;4691;47.612;7.610;2022-11-27T09:12:19;100289.03;;;7.43;100.00
9307;BME280;4691;47.612;7.610;2022-11-27T09:14:45;100231.47;;;7.61;100.00
9307;BME280;4691;47.612;7.610;2022-11-27T09:17:10;100161.97;;;7.67;100.00
9307;BME280;4691;47.612;7.610;2022-11-27T09:19:35;100120.44;;;7.83;100.00
9307;BME280;4691;47.612;7.610;2022-11-27T09:22:01;100082.75;;;7.72;100.00
9307;BME280;4691;47.612;7.610;2022-11-27T09:24:26;100074.13;;;7.67;100.00
9307;BME280;4691;47.612;7.610;2022-11-27T09:26:51;100061.53;;;7.31;100.00
9307;BME280;4691;47.612;7.610;2022-11-27T09:29:17;100090.16;;;7.26;100.00
9307;BME280;4691;47.612;7.610;2022-11-27T09:31:42;100123.81;;;7.27;100.00
9307;BME280;4691;47.612;7.610;2022-11-27T09:34:07;100159.00;;;7.34;100.00
9307;BME280;4691;47.612;7.610;2022-11-27T09:36:33;100152.44;;;7.43;100.00
9307;BME280;4691;47.612;7.610;2022-11-27T09:38:58;100152.88;;;7.32;100.00
9307;BME280;4691;47.612;7.610;2022-11-27T09:41:48;100120.28;;;7.06;100.00
9307;BME280;4691;47.612;7.610;2022-11-27T09:44:15;100120.22;;;7.08;100.00
9307;BME280;4691;47.612;7.610;2022-11-27T09:46:44;100146.84;;;7.28;100.00
9307;BME280;4691;47.612;7.610;2022-11-27T09:49:32;100132.72;;;7.26;100.00
9307;BME280;4691;47.612;7.610;2022-11-27T09:52:17;100160.28;;;7.46;100.00
9307;BME280;4691;47.612;7.610;2022-11-27T09:57:52;100111.38;;;7.48;100.00
9307;BME280;4691;47.612;7.610;2022-11-27T10:00:19;100094.53;;;7.48;100.00
9307;BME280;4691;47.612;7.610;2022-11-27T10:02:45;100079.63;;;7.44;100.00
9307;BME280;4691;47.612;7.610;2022-11-27T10:05:21;100078.81;;;7.41;100.00
9307;BME280;4691;47.612;7.610;2022-11-27T10:16:08;99966.44;;;7.73;100.00
9307;BME280;4691;47.612;7.610;2022-11-27T10:19:03;99902.25;;;7.79;100.00
9307;BME280;4691;47.612;7.610;2022-11-27T10:21:55;99832.59;;;8.39;100.00
9307;BME280;4691;47.612;7.610;2022-11-27T10:24:44;99791.03;;;8.52;100.00
9307;BME280;4691;47.612;7.610;2022-11-27T10:27:24;99749.97;;;8.39;100.00
9307;BME280;4691;47.612;7.610;2022-11-27T10:29:54;99739.19;;;8.24;100.00
9307;BME280;4691;47.612;7.610;2022-11-27T10:32:30;99747.84;;;8.12;100.00
9307;BME280;4691;47.612;7.610;2022-11-27T10:35:11;99754.88;;;8.31;100.00
9307;BME280;4691;47.612;7.610;2022-11-27T10:38:20;99726.13;;;8.20;100.00
9307;BME280;4691;47.612;7.610;2022-11-27T10:40:30;99720.63;;;8.56;100.00
9307;BME280;4691;47.612;7.610;2022-11-27T10:43:09;99715.72;;;8.80;100.00
9307;BME280;4691;47.612;7.610;2022-11-27T10:45:46;99617.00;;;8.50;100.00
9307;BME280;4691;47.612;7.610;2022-11-27T10:48:13;99592.84;;;8.53;100.00
9307;BME280;4691;47.612;7.610;2022-11-27T10:50:40;99601.44;;;8.88;100.00
9307;BME280;4691;47.612;7.610;2022-11-27T10:53:11;99532.03;;;8.60;100.00
9307;BME280;4691;47.612;7.610;2022-11-27T11:01:06;99391.28;;;9.78;100.00
9307;BME280;4691;47.612;7.610;2022-11-27T11:03:32;99232.56;;;11.20;100.00
9307;BME280;4691;47.612;7.610;2022-11-27T11:06:04;99167.03;;;10.02;100.00
9307;BME280;4691;47.612;7.610;2022-11-27T11:08:32;99192.72;;;10.30;100.00
9307;BME280;4691;47.612;7.610;2022-11-27T11:11:03;99073.69;;;11.21;100.00
9307;BME280;4691;47.612;7.610;2022-11-27T11:13:49;99109.34;;;11.21;100.00
9307;BME280;4691;47.612;7.610;2022-11-27T11:16:25;99052.13;;;10.52;100.00
9307;BME280;4691;47.612;7.610;2022-11-27T11:18:55;99099.25;;;10.16;100.00
9307;BME280;4691;47.612;7.610;2022-11-27T11:26:30;99029.53;;;10.56;100.00
9307;BME280;4691;47.612;7.610;2022-11-27T11:28:59;98993.03;;;11.37;100.00
9307;BME280;4691;47.612;7.610;2022-11-27T11:31:35;98888.78;;;12.54;100.00
9307;BME280;4691;47.612;7.610;2022-11-27T11:34:14;98804.75;;;11.47;100.00
9307;BME280;4691;47.612;7.610;2022-11-27T11:36:53;98810.50;;;11.86;100.00
9307;BME280;4691;47.612;7.610;2022-11-27T11:39:27;98822.41;;;11.50;100.00
9307;BME280;4691;47.612;7.610;2022-11-27T11:41:53;98881.78;;;10.65;100.00
9307;BME280;4691;47.612;7.610;2022-11-27T11:44:30;98949.63;;;10.86;100.00
9307;BME280;4691;47.612;7.610;2022-11-27T11:46:57;98976.41;;;10.86;100.00
9307;BME280;4691;47.612;7.610;2022-11-27T11:49:26;99053.78;;;10.89;100.00
9307;BME280;4691;47.612;7.610;2022-11-27T11:57:36;99027.00;;;10.17;100.00
9307;BME280;4691;47.612;7.610;2022-11-27T12:00:50;98997.03;;;9.88;100.00
9307;BME280;4691;47.612;7.610;2022-11-27T12:03:33;99019.50;;;10.35;100.00
9307;BME280;4691;47.612;7.610;2022-11-27T12:06:36;98936.88;;;10.19;100.00
9307;BME280;4691;47.612;7.610;2022-11-27T12:11:48;98960.41;;;10.14;100.00
9307;BME280;4691;47.612;7.610;2022-11-27T12:14:22;98971.72;;;9.81;100.00
9307;BME280;4691;47.612;7.610;2022-11-27T12:20:00;98981.16;;;9.87;100.00
9307;BME280;4691;47.612;7.610;2022-11-27T12:25:36;99055.75;;;9.51;100.00
9307;BME280;4691;47.612;7.610;2022-11-27T12:31:27;99065.13;;;9.19;100.00
9307;BME280;4691;47.612;7.610;2022-11-27T12:33:57;99086.47;;;9.19;100.00
9307;BME280;4691;47.612;7.610;2022-11-27T12:39:45;99100.56;;;9.21;100.00
9307;BME280;4691;47.612;7.610;2022-11-27T12:42:24;99095.59;;;8.89;100.00
9307;BME280;4691;47.612;7.610;2022-11-27T12:45:20;99151.31;;;9.06;100.00
9307;BME280;4691;47.612;7.610;2022-11-27T12:47:54;99208.22;;;9.20;100.00
9307;BME280;4691;47.612;7.610;2022-11-27T12:56:11;99302.28;;;8.82;100.00
9307;BME280;4691;47.612;7.610;2022-11-27T12:58:44;99318.44;;;8.50;100.00
9307;BME280;4691;47.612;7.610;2022-11-27T13:01:18;99318.75;;;8.60;100.00
9307;BME280;4691;47.612;7.610;2022-11-27T13:06:30;99391.19;;;8.52;100.00
9307;BME280;4691;47.612;7.610;2022-11-27T13:09:12;99469.63;;;8.48;100.00
9307;BME280;4691;47.612;7.610;2022-11-27T13:11:42;99480.88;;;8.53;100.00
9307;BME280;4691;47.612;7.610;2022-11-27T13:14:17;99492.66;;;8.49;100.00
9307;BME280;4691;47.612;7.610;2022-11-27T13:16:47;99498.59;;;8.38;100.00
9307;BME280;4691;47.612;7.610;2022-11-27T13:19:27;99486.50;;;8.33;100.00
9307;BME280;4691;47.612;7.610;2022-11-27T13:21:55;99512.63;;;8.26;100.00
9307;BME280;4691;47.612;7.610;2022-11-27T13:24:22;99526.03;;;8.24;100.00
9307;BME280;4691;47.612;7.610;2022-11-27T13:27:05;99493.53;;;8.34;100.00
9307;BME280;4691;47.612;7.610;2022-11-27T13:29:46;99563.84;;;8.31;100.00
9307;BME280;4691;47.612;7.610;2022-11-27T13:32:22;99568.16;;;8.34;100.00
9307;BME280;4691;47.612;7.610;2022-11-27T13:34:49;99516.56;;;8.35;100.00
9307;BME280;4691;47.612;7.610;2022-11-27T13:37:28;99550.09;;;8.39;100.00
9307;BME280;4691;47.612;7.610;2022-11-27T13:40:00;99563.00;;;8.15;100.00
9307;BME280;4691;47.612;7.610;2022-11-27T13:42:26;99581.03;;;8.25;100.00
9307;BME280;4691;47.612;7.610;2022-11-27T13:45:01;99589.28;;;8.21;100.00
9307;BME280;4691;47.612;7.610;2022-11-27T13:47:35;99637.19;;;8.22;100.00
9307;BME280;4691;47.612;7.610;2022-11-27T13:50:10;99627.44;;;8.21;100.00
9307;BME280;4691;47.612;7.610;2022-11-27T13:52:37;99604.06;;;8.26;100.00
9307;BME280;4691;47.612;7.610;2022-11-27T13:55:28;99593.06;;;8.17;100.00
9307;BME280;4691;47.612;7.610;2022-11-27T13:57:56;99597.22;;;8.22;100.00
9307;BME280;4691;47.612;7.610;2022-11-27T14:00:38;99595.66;;;8.18;100.00
9307;BME280;4691;47.612;7.610;2022-11-27T14:03:05;99591.88;;;8.22;100.00
9307;BME280;4691;47.612;7.610;2022-11-27T14:05:42;99580.63;;;8.17;100.00
9307;BME280;4691;47.612;7.610;2022-11-27T14:08:31;99572.03;;;8.12;100.00
9307;BME280;4691;47.612;7.610;2022-11-27T14:11:07;99592.22;;;8.16;100.00
9307;BME280;4691;47.612;7.610;2022-11-27T14:13:45;99583.97;;;8.05;100.00
9307;BME280;4691;47.612;7.610;2022-11-27T14:16:21;99600.44;;;8.12;100.00
9307;BME280;4691;47.612;7.610;2022-11-27T14:18:50;99578.53;;;8.06;100.00
9307;BME280;4691;47.612;7.610;2022-11-27T14:24:02;99609.56;;;8.07;100.00
9307;BME280;4691;47.612;7.610;2022-11-27T14:26:31;99623.31;;;8.00;100.00
9307;BME280;4691;47.612;7.610;2022-11-27T14:28:58;99640.06;;;8.02;100.00
9307;BME280;4691;47.612;7.610;2022-11-27T14:31:33;99630.16;;;8.04;100.00
9307;BME280;4691;47.612;7.610;2022-11-27T14:33:59;99657.94;;;8.00;100.00
9307;BME280;4691;47.612;7.610;2022-11-27T14:36:29;99674.09;;;7.97;100.00
9307;BME280;4691;47.612;7.610;2022-11-27T14:38:57;99639.59;;;7.94;100.00
9307;BME280;4691;47.612;7.610;2022-11-27T14:41:26;99595.81;;;7.99;100.00
9307;BME280;4691;47.612;7.610;2022-11-27T14:44:05;99563.16;;;7.96;100.00